Latest Weather Observations for Cape Ferguson

IDQ60801

Issued at 5:12 pm EST Saturday 22 September 2018 (issued every 10 minutes, with the page automatically refreshed every 10 minutes)

About weather observations | Map of weather stations | Latest weather observations for QLD | Other Formats
Station Details ID: 032182 Name: CAPE FERGUSON NTC AWS Lat: -19.28 Lon: 147.06 Height: 0.0 m
Data from the previous 72 hours. | See also: Recent months for locations in Queensland
Date/Time
EST
Temp
°C
App
Temp
°C
Dew
Point
°C
Rel
Hum
%
Delta-T
°C
Wind Press
QNH
hPa
Press
MSL
hPa
Rain since
9am
mm
Dir  Spd
km/h
Gust
km/h
Spd
kts
Gust
kts
22/05:00pm 23.2 - - - - E 39 46 21 25 1019.7 1019.7 -
22/04:30pm 23.2 - - - - E 39 46 21 25 1019.5 1019.5 -
22/04:00pm 23.2 - - - - E 35 43 19 23 1019.2 1019.2 -
22/03:30pm 23.2 - - - - E 37 43 20 23 1019.3 1019.3 -
22/03:00pm 23.3 - - - - E 33 41 18 22 1019.5 1019.5 -
22/02:30pm 23.5 - - - - E 33 39 18 21 1019.5 1019.5 -
22/02:00pm 23.7 - - - - E 35 41 19 22 1019.9 1019.9 -
22/01:30pm 23.3 - - - - E 35 43 19 23 1020.3 1020.3 -
22/01:00pm 23.4 - - - - E 35 43 19 23 1020.6 1020.6 -
22/12:30pm 23.3 - - - - E 35 41 19 22 1021.0 1021.0 -
22/12:00pm 23.1 - - - - E 35 41 19 22 1021.7 1021.7 -
22/11:30am 23.2 - - - - E 33 39 18 21 1022.1 1022.1 -
22/11:00am 23.3 - - - - E 32 37 17 20 1022.3 1022.3 -
22/10:30am 23.4 - - - - ESE 33 41 18 22 1022.6 1022.6 -
22/10:00am 23.1 - - - - ESE 24 32 13 17 1022.8 1022.8 -
22/09:30am 22.7 - - - - SE 24 30 13 16 1022.7 1022.7 -
22/09:00am 22.2 - - - - SE 24 32 13 17 1022.6 1022.6 -
22/08:30am 21.9 - - - - SSE 24 30 13 16 1022.6 1022.6 -
22/08:00am 21.5 - - - - SSE 26 32 14 17 1022.3 1022.3 -
22/07:30am 21.5 - - - - SSE 26 35 14 19 1022.0 1022.0 -
22/07:00am 21.2 - - - - SSE 26 32 14 17 1021.5 1021.5 -
22/06:30am 21.0 - - - - SSE 22 28 12 15 1021.3 1021.3 -
22/06:00am 21.2 - - - - SSE 24 28 13 15 1021.0 1021.0 -
22/05:30am 21.2 - - - - SSE 22 28 12 15 1020.5 1020.5 -
22/05:00am 21.1 - - - - SSE 22 28 12 15 1020.3 1020.3 -
22/04:30am 21.3 - - - - SSE 22 28 12 15 1020.2 1020.2 -
22/04:00am 21.8 - - - - SE 20 26 11 14 1019.9 1019.9 -
22/03:30am 21.5 - - - - SE 20 24 11 13 1020.1 1020.1 -
22/03:00am 21.6 - - - - SSE 20 24 11 13 1020.1 1020.1 -
22/02:30am 21.5 - - - - SSE 24 28 13 15 1020.3 1020.3 -
22/02:00am 22.0 - - - - SSE 19 22 10 12 1020.4 1020.4 -
22/01:30am 21.9 - - - - SSE 17 20 9 11 1020.7 1020.7 -
22/01:00am 22.1 - - - - SSE 17 19 9 10 1021.0 1021.0 -
22/12:30am 22.3 - - - - SE 20 26 11 14 1021.4 1021.4 -
22/12:00am 22.9 - - - - ESE 32 39 17 21 1021.9 1021.9 -
 
Date/Time
EST
Temp
°C
App
Temp
°C
Dew
Point
°C
Rel
Hum
%
Delta-T
°C
Wind Press
QNH
hPa
Press
MSL
hPa
Rain since
9am
mm
Dir  Spd
km/h
Gust
km/h
Spd
kts
Gust
kts
21/11:30pm 23.0 - - - - ESE 28 37 15 20 1022.0 1022.0 -
21/11:00pm 23.3 - - - - ESE 35 43 19 23 1022.1 1022.1 -
21/10:30pm 23.4 - - - - ESE 32 39 17 21 1021.9 1021.9 -
21/10:00pm 23.5 - - - - E 35 43 19 23 1021.9 1021.9 -
21/09:30pm 23.9 - - - - E 33 41 18 22 1021.6 1021.6 -
21/09:00pm 24.0 - - - - ESE 32 41 17 22 1021.3 1021.3 -
21/08:30pm 23.7 - - - - E 32 39 17 21 1021.3 1021.3 -
21/08:00pm 23.5 - - - - E 28 33 15 18 1020.8 1020.8 -
21/07:30pm 23.6 - - - - E 32 39 17 21 1020.3 1020.3 -
21/07:00pm 23.4 - - - - E 30 35 16 19 1019.7 1019.7 -
21/06:30pm 23.6 - - - - E 30 35 16 19 1019.0 1019.0 -
21/06:00pm 23.3 - - - - E 28 33 15 18 1018.5 1018.5 -
21/05:30pm 23.4 - - - - E 30 35 16 19 1018.1 1018.1 -
21/05:00pm 23.4 - - - - E 32 37 17 20 1017.9 1017.9 -
21/04:30pm 23.4 - - - - E 30 35 16 19 1017.6 1017.6 -
21/04:00pm 23.4 - - - - E 32 39 17 21 1017.5 1017.5 -
21/03:30pm 23.4 - - - - ENE 33 43 18 23 1017.3 1017.3 -
21/03:00pm 23.7 - - - - E 32 37 17 20 1017.1 1017.1 -
21/02:30pm 23.6 - - - - E 32 39 17 21 1017.5 1017.5 -
21/02:00pm 23.7 - - - - E 28 35 15 19 1017.5 1017.5 -
21/01:30pm 23.7 - - - - E 33 39 18 21 1018.0 1018.0 -
21/01:00pm 23.8 - - - - E 33 39 18 21 1018.2 1018.2 -
21/12:30pm 23.9 - - - - E 33 41 18 22 1018.6 1018.6 -
21/12:00pm 23.7 - - - - E 33 39 18 21 1018.9 1018.9 -
21/11:30am 23.7 - - - - E 30 35 16 19 1019.1 1019.1 -
21/11:00am 23.7 - - - - E 28 33 15 18 1019.5 1019.5 -
21/10:30am 23.5 - - - - E 28 35 15 19 1019.8 1019.8 -
21/10:00am 23.4 - - - - ESE 19 22 10 12 1019.6 1019.6 -
21/09:30am 23.1 - - - - ESE 22 26 12 14 1019.7 1019.7 -
21/09:00am 22.9 - - - - SE 20 24 11 13 1019.4 1019.4 -
21/08:30am 22.2 - - - - SE 20 26 11 14 1019.2 1019.2 -
21/08:00am 21.7 - - - - SE 22 26 12 14 1018.9 1018.9 -
21/07:30am 21.5 - - - - SSE 20 24 11 13 1018.5 1018.5 -
21/07:00am 21.3 - - - - SSE 22 26 12 14 1018.2 1018.2 -
21/06:30am 21.4 - - - - S 13 17 7 9 1017.3 1017.3 -
21/06:00am 20.9 - - - - WNW 4 7 2 4 1016.6 1016.6 -
21/05:30am 21.0 - - - - SW 4 9 2 5 1016.0 1016.0 -
21/05:00am 21.1 - - - - SW 7 11 4 6 1015.5 1015.5 -
21/04:30am 20.5 - - - - WNW 9 11 5 6 1015.1 1015.1 -
21/04:00am 20.7 - - - - WNW 7 9 4 5 1014.6 1014.6 -
21/03:30am 20.3 - - - - WNW 9 11 5 6 1014.5 1014.5 -
21/03:00am 20.6 - - - - WNW 7 9 4 5 1014.4 1014.4 -
21/02:30am 20.8 - - - - WNW 7 9 4 5 1014.5 1014.5 -
21/02:00am 20.8 - - - - WNW 9 13 5 7 1014.8 1014.8 -
21/01:30am 20.8 - - - - NW 7 11 4 6 1014.8 1014.8 -
21/01:00am 21.7 - - - - SSW 4 9 2 5 1015.1 1015.1 -
21/12:30am 21.4 - - - - CALM 0 4 0 2 1015.2 1015.2 -
21/12:00am 21.0 - - - - WNW 4 4 2 2 1015.6 1015.6 -
 
Date/Time
EST
Temp
°C
App
Temp
°C
Dew
Point
°C
Rel
Hum
%
Delta-T
°C
Wind Press
QNH
hPa
Press
MSL
hPa
Rain since
9am
mm
Dir  Spd
km/h
Gust
km/h
Spd
kts
Gust
kts
20/11:30pm 21.0 - - - - WNW 4 6 2 3 1015.8 1015.8 -
20/11:00pm 22.5 - - - - CALM 0 4 0 2 1015.8 1015.8 -
20/10:30pm 21.9 - - - - NW 4 4 2 2 1015.9 1015.9 -
20/10:00pm 22.7 - - - - NW 2 2 1 1 1016.0 1016.0 -
20/09:30pm 23.1 - - - - NW 4 4 2 2 1016.0 1016.0 -
20/09:00pm 23.1 - - - - NW 6 7 3 4 1016.0 1016.0 -
20/08:30pm 23.0 - - - - NW 7 11 4 6 1015.8 1015.8 -
20/08:00pm 23.2 - - - - NW 6 11 3 6 1015.6 1015.6 -
20/07:30pm 23.5 - - - - N 6 13 3 7 1015.0 1015.0 -
20/07:00pm 23.4 - - - - WNW 7 15 4 8 1014.5 1014.5 -
20/06:30pm 23.7 - - - - WSW 4 13 2 7 1013.9 1013.9 -
20/06:00pm 23.8 - - - - ENE 6 19 3 10 1013.6 1013.6 -
20/05:30pm 24.0 - - - - ENE 11 26 6 14 1013.2 1013.2 -
20/05:00pm 24.2 - - - - NE 11 26 6 14 1013.1 1013.1 -
20/04:30pm 24.3 - - - - NE 11 24 6 13 1013.0 1013.0 -
20/04:00pm 24.4 - - - - NE 11 22 6 12 1012.8 1012.8 -
20/03:30pm 24.3 - - - - ENE 15 26 8 14 1012.8 1012.8 -
20/03:00pm 24.5 - - - - NE 13 26 7 14 1012.7 1012.7 -
20/02:30pm 24.2 - - - - NE 15 24 8 13 1013.1 1013.1 -
20/02:00pm 24.2 - - - - NE 17 26 9 14 1013.4 1013.4 -
20/01:30pm 24.3 - - - - NNE 17 24 9 13 1013.6 1013.6 -
20/01:00pm 24.3 - - - - NNE 11 19 6 10 1014.3 1014.3 -
20/12:30pm 24.1 - - - - ENE 11 17 6 9 1014.8 1014.8 -
20/12:00pm 23.5 - - - - ENE 9 13 5 7 1015.5 1015.5 -
20/11:30am 23.3 - - - - E 9 13 5 7 1015.9 1015.9 -
20/11:00am 23.2 - - - - ESE 9 11 5 6 1016.3 1016.3 -
20/10:30am 23.3 - - - - ESE 7 11 4 6 1016.4 1016.4 -
20/10:00am 23.0 - - - - SE 6 9 3 5 1016.3 1016.3 -
20/09:30am 22.7 - - - - SE 6 7 3 4 1016.3 1016.3 -
20/09:00am 22.3 - - - - SE 6 9 3 5 1016.2 1016.2 -
20/08:30am 22.1 - - - - S 2 6 1 3 1016.1 1016.1 -
20/08:00am 21.8 - - - - SW 2 4 1 2 1016.0 1016.0 -
20/07:30am 21.6 - - - - SW 4 7 2 4 1015.7 1015.7 -
20/07:00am 21.3 - - - - WNW 6 7 3 4 1015.5 1015.5 -
20/06:30am 20.5 - - - - W 6 7 3 4 1015.0 1015.0 -
20/06:00am 20.8 - - - - WNW 6 9 3 5 1014.7 1014.7 -
20/05:30am 20.6 - - - - W 6 7 3 4 1014.3 1014.3 -
20/05:00am 20.4 - - - - WNW 6 7 3 4 1014.0 1014.0 -
20/04:30am 20.2 - - - - WNW 6 7 3 4 1013.7 1013.7 -
20/04:00am 19.9 - - - - NW 4 6 2 3 1013.6 1013.6 -
20/03:30am 20.0 - - - - WNW 7 9 4 5 1013.6 1013.6 -
20/03:00am 22.7 - - - - ENE 9 15 5 8 1013.7 1013.7 -
20/02:30am 22.8 - - - - ENE 11 15 6 8 1014.0 1014.0 -
20/02:00am 22.7 - - - - ENE 9 13 5 7 1014.4 1014.4 -
20/01:30am 22.8 - - - - ENE 11 15 6 8 1014.8 1014.8 -
20/01:00am 23.0 - - - - E 9 13 5 7 1015.2 1015.2 -
20/12:30am 23.0 - - - - ENE 11 15 6 8 1015.5 1015.5 -
20/12:00am 22.3 - - - - E 4 9 2 5 1015.7 1015.7 -
 
Date/Time
EST
Temp
°C
App
Temp
°C
Dew
Point
°C
Rel
Hum
%
Delta-T
°C
Wind Press
QNH
hPa
Press
MSL
hPa
Rain since
9am
mm
Dir  Spd
km/h
Gust
km/h
Spd
kts
Gust
kts
19/11:30pm 22.2 - - - - NNE 2 9 1 5 1016.0 1016.0 -
19/11:00pm 23.1 - - - - ENE 6 11 3 6 1016.2 1016.2 -
19/10:30pm 21.1 - - - - WNW 2 6 1 3 1016.2 1016.2 -
19/10:00pm 22.2 - - - - NNE 4 7 2 4 1016.2 1016.2 -
19/09:30pm 23.3 - - - - ENE 6 11 3 6 1015.9 1015.9 -
19/09:00pm 23.4 - - - - ENE 7 11 4 6 1015.8 1015.8 -
19/08:30pm 23.0 - - - - NNE 6 7 3 4 1015.4 1015.4 -
19/08:00pm 23.4 - - - - NE 4 9 2 5 1015.2 1015.2 -
19/07:30pm 23.5 - - - - NE 7 15 4 8 1015.0 1015.0 -
19/07:00pm 23.5 - - - - NE 7 11 4 6 1014.6 1014.6 -
19/06:30pm 23.4 - - - - NE 6 9 3 5 1014.4 1014.4 -
19/06:00pm 23.5 - - - - NE 6 9 3 5 1014.1 1014.1 -
19/05:30pm 23.6 - - - - ENE 7 17 4 9 1013.9 1013.9 -

Other Formats:

Comma delimited format used in spreadsheet applications
http://www.bom.gov.au/fwo/IDQ60801/IDQ60801.94297.axf

JavaScript Object Notation format (JSON) in row-major order
http://www.bom.gov.au/fwo/IDQ60801/IDQ60801.94297.json